sensor_id;sensor_type;location;lat;lon;timestamp;P1;durP1;ratioP1;P2;durP2;ratioP2
1296;SDS011;641;48.492;9.184;2023-03-07T00:01:19;17.27;;;7.73;;
1296;SDS011;641;48.492;9.184;2023-03-07T00:03:48;17.40;;;8.10;;
1296;SDS011;641;48.492;9.184;2023-03-07T00:06:14;17.37;;;7.33;;
1296;SDS011;641;48.492;9.184;2023-03-07T00:08:39;15.50;;;7.20;;
1296;SDS011;641;48.492;9.184;2023-03-07T00:11:06;18.73;;;7.80;;
1296;SDS011;641;48.492;9.184;2023-03-07T00:13:35;15.17;;;6.97;;
1296;SDS011;641;48.492;9.184;2023-03-07T00:18:31;13.57;;;6.47;;
1296;SDS011;641;48.492;9.184;2023-03-07T00:20:58;18.23;;;7.67;;
1296;SDS011;641;48.492;9.184;2023-03-07T00:23:24;13.03;;;6.47;;
1296;SDS011;641;48.492;9.184;2023-03-07T00:26:00;18.33;;;8.50;;
1296;SDS011;641;48.492;9.184;2023-03-07T00:28:28;18.90;;;8.30;;
1296;SDS011;641;48.492;9.184;2023-03-07T00:30:53;15.67;;;6.50;;
1296;SDS011;641;48.492;9.184;2023-03-07T00:33:23;18.53;;;8.30;;
1296;SDS011;641;48.492;9.184;2023-03-07T00:35:58;16.90;;;7.80;;
1296;SDS011;641;48.492;9.184;2023-03-07T00:38:28;14.87;;;7.03;;
1296;SDS011;641;48.492;9.184;2023-03-07T00:40:59;17.93;;;7.50;;
1296;SDS011;641;48.492;9.184;2023-03-07T00:43:29;18.70;;;8.17;;
1296;SDS011;641;48.492;9.184;2023-03-07T00:45:55;16.00;;;7.60;;
1296;SDS011;641;48.492;9.184;2023-03-07T00:48:21;17.27;;;8.30;;
1296;SDS011;641;48.492;9.184;2023-03-07T00:50:48;18.33;;;7.93;;
1296;SDS011;641;48.492;9.184;2023-03-07T00:53:14;15.67;;;7.10;;
1296;SDS011;641;48.492;9.184;2023-03-07T00:55:40;16.37;;;7.77;;
1296;SDS011;641;48.492;9.184;2023-03-07T00:58:05;15.57;;;7.43;;
1296;SDS011;641;48.492;9.184;2023-03-07T01:00:31;16.87;;;7.70;;
1296;SDS011;641;48.492;9.184;2023-03-07T01:02:57;16.83;;;7.40;;
1296;SDS011;641;48.492;9.184;2023-03-07T01:05:23;16.47;;;7.60;;
1296;SDS011;641;48.492;9.184;2023-03-07T01:07:48;15.27;;;7.33;;
1296;SDS011;641;48.492;9.184;2023-03-07T01:10:14;19.37;;;7.73;;
1296;SDS011;641;48.492;9.184;2023-03-07T01:12:40;17.53;;;7.90;;
1296;SDS011;641;48.492;9.184;2023-03-07T01:15:07;24.20;;;8.30;;
1296;SDS011;641;48.492;9.184;2023-03-07T01:17:33;17.50;;;8.57;;
1296;SDS011;641;48.492;9.184;2023-03-07T01:19:59;17.27;;;7.67;;
1296;SDS011;641;48.492;9.184;2023-03-07T01:22:25;18.43;;;7.87;;
1296;SDS011;641;48.492;9.184;2023-03-07T01:24:50;16.97;;;6.90;;
1296;SDS011;641;48.492;9.184;2023-03-07T01:27:16;17.87;;;8.03;;
1296;SDS011;641;48.492;9.184;2023-03-07T01:29:41;14.50;;;7.43;;
1296;SDS011;641;48.492;9.184;2023-03-07T01:32:07;17.73;;;8.40;;
1296;SDS011;641;48.492;9.184;2023-03-07T01:34:32;17.07;;;8.17;;
1296;SDS011;641;48.492;9.184;2023-03-07T01:36:58;19.40;;;9.00;;
1296;SDS011;641;48.492;9.184;2023-03-07T01:39:23;17.43;;;8.33;;
1296;SDS011;641;48.492;9.184;2023-03-07T01:41:49;15.57;;;7.60;;
1296;SDS011;641;48.492;9.184;2023-03-07T01:44:16;15.90;;;7.83;;
1296;SDS011;641;48.492;9.184;2023-03-07T01:46:52;16.40;;;7.80;;
1296;SDS011;641;48.492;9.184;2023-03-07T01:49:32;17.73;;;7.77;;
1296;SDS011;641;48.492;9.184;2023-03-07T01:54:37;17.40;;;8.13;;
1296;SDS011;641;48.492;9.184;2023-03-07T01:57:06;19.10;;;8.50;;
1296;SDS011;641;48.492;9.184;2023-03-07T01:59:33;15.67;;;7.20;;
1296;SDS011;641;48.492;9.184;2023-03-07T02:02:05;15.73;;;7.17;;
1296;SDS011;641;48.492;9.184;2023-03-07T02:04:40;15.20;;;7.97;;
1296;SDS011;641;48.492;9.184;2023-03-07T02:07:16;16.47;;;7.20;;
1296;SDS011;641;48.492;9.184;2023-03-07T02:09:44;17.33;;;7.30;;
1296;SDS011;641;48.492;9.184;2023-03-07T02:12:13;18.80;;;7.70;;
1296;SDS011;641;48.492;9.184;2023-03-07T02:14:41;14.03;;;6.50;;
1296;SDS011;641;48.492;9.184;2023-03-07T02:17:08;17.70;;;7.50;;
1296;SDS011;641;48.492;9.184;2023-03-07T02:19:46;16.00;;;7.37;;
1296;SDS011;641;48.492;9.184;2023-03-07T02:22:25;15.30;;;6.50;;
1296;SDS011;641;48.492;9.184;2023-03-07T02:24:52;15.70;;;7.37;;
1296;SDS011;641;48.492;9.184;2023-03-07T02:27:40;15.70;;;7.17;;
1296;SDS011;641;48.492;9.184;2023-03-07T02:30:07;16.87;;;7.93;;
1296;SDS011;641;48.492;9.184;2023-03-07T02:32:33;15.50;;;7.03;;
1296;SDS011;641;48.492;9.184;2023-03-07T02:34:58;16.80;;;6.80;;
1296;SDS011;641;48.492;9.184;2023-03-07T02:37:25;16.03;;;7.67;;
1296;SDS011;641;48.492;9.184;2023-03-07T02:39:57;16.00;;;7.63;;
1296;SDS011;641;48.492;9.184;2023-03-07T02:42:30;15.63;;;7.40;;
1296;SDS011;641;48.492;9.184;2023-03-07T02:44:58;18.23;;;8.00;;
1296;SDS011;641;48.492;9.184;2023-03-07T02:47:25;20.03;;;7.93;;
1296;SDS011;641;48.492;9.184;2023-03-07T02:49:51;15.00;;;7.40;;
1296;SDS011;641;48.492;9.184;2023-03-07T02:52:17;15.03;;;7.30;;
1296;SDS011;641;48.492;9.184;2023-03-07T02:54:43;17.70;;;6.03;;
1296;SDS011;641;48.492;9.184;2023-03-07T02:57:08;16.27;;;7.40;;
1296;SDS011;641;48.492;9.184;2023-03-07T02:59:34;16.30;;;6.60;;
1296;SDS011;641;48.492;9.184;2023-03-07T03:02:00;16.13;;;7.43;;
1296;SDS011;641;48.492;9.184;2023-03-07T03:04:26;17.13;;;7.10;;
1296;SDS011;641;48.492;9.184;2023-03-07T03:06:52;16.20;;;7.17;;
1296;SDS011;641;48.492;9.184;2023-03-07T03:09:18;18.00;;;7.63;;
1296;SDS011;641;48.492;9.184;2023-03-07T03:11:44;13.80;;;6.17;;
1296;SDS011;641;48.492;9.184;2023-03-07T03:14:10;14.60;;;6.30;;
1296;SDS011;641;48.492;9.184;2023-03-07T03:16:36;15.67;;;7.30;;
1296;SDS011;641;48.492;9.184;2023-03-07T03:19:02;15.00;;;6.50;;
1296;SDS011;641;48.492;9.184;2023-03-07T03:21:28;15.33;;;5.93;;
1296;SDS011;641;48.492;9.184;2023-03-07T03:23:53;14.20;;;6.60;;
1296;SDS011;641;48.492;9.184;2023-03-07T03:26:19;13.33;;;5.83;;
1296;SDS011;641;48.492;9.184;2023-03-07T03:28:44;19.50;;;7.67;;
1296;SDS011;641;48.492;9.184;2023-03-07T03:31:10;16.30;;;6.90;;
1296;SDS011;641;48.492;9.184;2023-03-07T03:33:41;15.57;;;6.60;;
1296;SDS011;641;48.492;9.184;2023-03-07T03:36:09;15.53;;;7.33;;
1296;SDS011;641;48.492;9.184;2023-03-07T03:38:36;15.27;;;6.20;;
1296;SDS011;641;48.492;9.184;2023-03-07T03:41:07;15.43;;;6.57;;
1296;SDS011;641;48.492;9.184;2023-03-07T03:43:36;17.43;;;7.00;;
1296;SDS011;641;48.492;9.184;2023-03-07T03:46:01;15.57;;;6.53;;
1296;SDS011;641;48.492;9.184;2023-03-07T03:48:27;16.33;;;6.03;;
1296;SDS011;641;48.492;9.184;2023-03-07T03:50:59;21.40;;;7.03;;
1296;SDS011;641;48.492;9.184;2023-03-07T03:53:29;16.17;;;7.47;;
1296;SDS011;641;48.492;9.184;2023-03-07T03:56:04;16.00;;;6.80;;
1296;SDS011;641;48.492;9.184;2023-03-07T03:58:35;20.30;;;7.37;;
1296;SDS011;641;48.492;9.184;2023-03-07T04:01:02;13.57;;;6.17;;
1296;SDS011;641;48.492;9.184;2023-03-07T04:03:39;14.27;;;5.97;;
1296;SDS011;641;48.492;9.184;2023-03-07T04:06:07;15.27;;;7.00;;
1296;SDS011;641;48.492;9.184;2023-03-07T04:08:36;17.07;;;6.80;;
1296;SDS011;641;48.492;9.184;2023-03-07T04:11:02;14.77;;;6.10;;
1296;SDS011;641;48.492;9.184;2023-03-07T04:13:32;14.23;;;6.07;;
1296;SDS011;641;48.492;9.184;2023-03-07T04:15:58;14.70;;;6.40;;
1296;SDS011;641;48.492;9.184;2023-03-07T04:18:24;13.60;;;5.30;;
1296;SDS011;641;48.492;9.184;2023-03-07T04:20:50;15.60;;;5.67;;
1296;SDS011;641;48.492;9.184;2023-03-07T04:23:16;16.10;;;5.77;;
1296;SDS011;641;48.492;9.184;2023-03-07T04:25:50;13.77;;;6.40;;
1296;SDS011;641;48.492;9.184;2023-03-07T04:28:20;14.60;;;5.60;;
1296;SDS011;641;48.492;9.184;2023-03-07T04:30:47;14.67;;;6.40;;
1296;SDS011;641;48.492;9.184;2023-03-07T04:33:17;14.67;;;6.63;;
1296;SDS011;641;48.492;9.184;2023-03-07T04:35:43;15.63;;;6.60;;
1296;SDS011;641;48.492;9.184;2023-03-07T04:38:10;10.50;;;4.80;;
1296;SDS011;641;48.492;9.184;2023-03-07T04:40:36;16.10;;;6.50;;
1296;SDS011;641;48.492;9.184;2023-03-07T04:43:02;13.67;;;6.00;;
1296;SDS011;641;48.492;9.184;2023-03-07T04:45:29;13.87;;;5.67;;
1296;SDS011;641;48.492;9.184;2023-03-07T04:47:57;13.43;;;5.43;;
1296;SDS011;641;48.492;9.184;2023-03-07T04:50:22;16.90;;;6.67;;
1296;SDS011;641;48.492;9.184;2023-03-07T04:52:48;15.97;;;7.00;;
1296;SDS011;641;48.492;9.184;2023-03-07T04:55:14;13.93;;;6.17;;
1296;SDS011;641;48.492;9.184;2023-03-07T04:57:40;16.70;;;6.80;;
1296;SDS011;641;48.492;9.184;2023-03-07T05:00:06;15.73;;;6.17;;
1296;SDS011;641;48.492;9.184;2023-03-07T05:02:33;14.63;;;6.17;;
1296;SDS011;641;48.492;9.184;2023-03-07T05:04:59;13.43;;;5.70;;
1296;SDS011;641;48.492;9.184;2023-03-07T05:07:25;14.70;;;5.80;;
1296;SDS011;641;48.492;9.184;2023-03-07T05:09:50;14.90;;;6.30;;
1296;SDS011;641;48.492;9.184;2023-03-07T05:12:16;16.63;;;6.50;;
1296;SDS011;641;48.492;9.184;2023-03-07T05:14:42;16.30;;;7.27;;
1296;SDS011;641;48.492;9.184;2023-03-07T05:17:07;14.07;;;6.00;;
1296;SDS011;641;48.492;9.184;2023-03-07T05:19:34;14.50;;;5.60;;
1296;SDS011;641;48.492;9.184;2023-03-07T05:21:59;15.47;;;5.90;;
1296;SDS011;641;48.492;9.184;2023-03-07T05:24:25;14.97;;;6.70;;
1296;SDS011;641;48.492;9.184;2023-03-07T05:26:51;14.10;;;6.63;;
1296;SDS011;641;48.492;9.184;2023-03-07T05:29:16;15.27;;;6.33;;
1296;SDS011;641;48.492;9.184;2023-03-07T05:31:42;15.90;;;5.80;;
1296;SDS011;641;48.492;9.184;2023-03-07T05:34:07;13.73;;;5.80;;
1296;SDS011;641;48.492;9.184;2023-03-07T05:36:34;13.63;;;5.90;;
1296;SDS011;641;48.492;9.184;2023-03-07T05:39:00;15.00;;;6.63;;
1296;SDS011;641;48.492;9.184;2023-03-07T05:41:26;18.30;;;6.50;;
1296;SDS011;641;48.492;9.184;2023-03-07T05:43:51;14.50;;;5.97;;
1296;SDS011;641;48.492;9.184;2023-03-07T05:46:18;14.77;;;6.03;;
1296;SDS011;641;48.492;9.184;2023-03-07T05:48:44;15.47;;;6.10;;
1296;SDS011;641;48.492;9.184;2023-03-07T05:51:10;14.53;;;5.90;;
1296;SDS011;641;48.492;9.184;2023-03-07T05:53:36;15.00;;;6.60;;
1296;SDS011;641;48.492;9.184;2023-03-07T05:56:01;16.00;;;5.90;;
1296;SDS011;641;48.492;9.184;2023-03-07T05:58:27;17.17;;;6.20;;
1296;SDS011;641;48.492;9.184;2023-03-07T06:00:52;13.30;;;5.60;;
1296;SDS011;641;48.492;9.184;2023-03-07T06:03:18;12.70;;;5.23;;
1296;SDS011;641;48.492;9.184;2023-03-07T06:05:43;14.57;;;6.00;;
1296;SDS011;641;48.492;9.184;2023-03-07T06:08:12;15.87;;;6.00;;
1296;SDS011;641;48.492;9.184;2023-03-07T06:10:37;16.00;;;6.43;;
1296;SDS011;641;48.492;9.184;2023-03-07T06:13:04;15.10;;;6.50;;
1296;SDS011;641;48.492;9.184;2023-03-07T06:15:29;14.13;;;5.97;;
1296;SDS011;641;48.492;9.184;2023-03-07T06:17:55;15.20;;;5.83;;
1296;SDS011;641;48.492;9.184;2023-03-07T06:20:20;13.77;;;6.00;;
1296;SDS011;641;48.492;9.184;2023-03-07T06:22:46;16.60;;;6.10;;
1296;SDS011;641;48.492;9.184;2023-03-07T06:25:13;16.70;;;6.40;;
1296;SDS011;641;48.492;9.184;2023-03-07T06:27:40;12.80;;;5.47;;
1296;SDS011;641;48.492;9.184;2023-03-07T06:30:06;12.57;;;5.27;;
1296;SDS011;641;48.492;9.184;2023-03-07T06:32:33;14.00;;;5.60;;
1296;SDS011;641;48.492;9.184;2023-03-07T06:34:59;13.87;;;5.60;;
1296;SDS011;641;48.492;9.184;2023-03-07T06:37:25;19.57;;;6.27;;
1296;SDS011;641;48.492;9.184;2023-03-07T06:39:52;13.93;;;6.53;;
1296;SDS011;641;48.492;9.184;2023-03-07T06:42:18;16.20;;;7.00;;
1296;SDS011;641;48.492;9.184;2023-03-07T06:44:43;16.00;;;6.13;;
1296;SDS011;641;48.492;9.184;2023-03-07T06:47:09;16.80;;;6.40;;
1296;SDS011;641;48.492;9.184;2023-03-07T06:49:34;15.73;;;6.90;;
1296;SDS011;641;48.492;9.184;2023-03-07T06:52:00;13.20;;;6.17;;
1296;SDS011;641;48.492;9.184;2023-03-07T06:54:25;11.97;;;5.20;;
1296;SDS011;641;48.492;9.184;2023-03-07T06:56:51;14.20;;;6.27;;
1296;SDS011;641;48.492;9.184;2023-03-07T06:59:17;14.73;;;6.00;;
1296;SDS011;641;48.492;9.184;2023-03-07T07:01:43;19.03;;;6.57;;
1296;SDS011;641;48.492;9.184;2023-03-07T07:04:12;16.17;;;6.03;;
1296;SDS011;641;48.492;9.184;2023-03-07T07:06:37;13.80;;;6.07;;
1296;SDS011;641;48.492;9.184;2023-03-07T07:09:03;15.20;;;5.90;;
1296;SDS011;641;48.492;9.184;2023-03-07T07:11:29;15.07;;;6.73;;
1296;SDS011;641;48.492;9.184;2023-03-07T07:13:55;18.20;;;7.47;;
1296;SDS011;641;48.492;9.184;2023-03-07T07:16:21;13.73;;;5.93;;
1296;SDS011;641;48.492;9.184;2023-03-07T07:18:49;14.70;;;6.00;;
1296;SDS011;641;48.492;9.184;2023-03-07T07:21:16;14.70;;;5.97;;
1296;SDS011;641;48.492;9.184;2023-03-07T07:23:42;15.93;;;6.17;;
1296;SDS011;641;48.492;9.184;2023-03-07T07:26:07;14.47;;;5.20;;
1296;SDS011;641;48.492;9.184;2023-03-07T07:28:33;14.80;;;5.90;;
1296;SDS011;641;48.492;9.184;2023-03-07T07:30:59;14.50;;;6.70;;
1296;SDS011;641;48.492;9.184;2023-03-07T07:33:24;14.17;;;5.70;;
1296;SDS011;641;48.492;9.184;2023-03-07T07:35:50;14.67;;;6.00;;
1296;SDS011;641;48.492;9.184;2023-03-07T07:38:15;14.20;;;6.07;;
1296;SDS011;641;48.492;9.184;2023-03-07T07:40:41;15.60;;;6.30;;
1296;SDS011;641;48.492;9.184;2023-03-07T07:43:10;14.23;;;6.23;;
1296;SDS011;641;48.492;9.184;2023-03-07T07:45:40;14.67;;;5.80;;
1296;SDS011;641;48.492;9.184;2023-03-07T07:48:06;16.83;;;6.60;;
1296;SDS011;641;48.492;9.184;2023-03-07T07:50:32;12.90;;;5.60;;
1296;SDS011;641;48.492;9.184;2023-03-07T07:52:58;13.30;;;6.60;;
1296;SDS011;641;48.492;9.184;2023-03-07T07:55:23;14.07;;;6.10;;
1296;SDS011;641;48.492;9.184;2023-03-07T07:57:49;16.53;;;6.20;;
1296;SDS011;641;48.492;9.184;2023-03-07T08:00:15;15.80;;;5.80;;
1296;SDS011;641;48.492;9.184;2023-03-07T08:02:45;17.93;;;7.50;;
1296;SDS011;641;48.492;9.184;2023-03-07T08:05:13;12.87;;;5.37;;
1296;SDS011;641;48.492;9.184;2023-03-07T08:07:39;14.00;;;6.00;;
1296;SDS011;641;48.492;9.184;2023-03-07T08:10:04;12.43;;;5.27;;
1296;SDS011;641;48.492;9.184;2023-03-07T08:12:31;14.50;;;6.60;;
1296;SDS011;641;48.492;9.184;2023-03-07T08:18:19;14.00;;;5.37;;
1296;SDS011;641;48.492;9.184;2023-03-07T08:20:44;14.70;;;6.30;;
1296;SDS011;641;48.492;9.184;2023-03-07T08:23:10;13.60;;;5.60;;
1296;SDS011;641;48.492;9.184;2023-03-07T08:25:35;14.33;;;5.50;;
1296;SDS011;641;48.492;9.184;2023-03-07T08:28:01;16.50;;;6.13;;
1296;SDS011;641;48.492;9.184;2023-03-07T08:30:30;13.20;;;5.50;;
1296;SDS011;641;48.492;9.184;2023-03-07T08:32:57;13.47;;;5.80;;
1296;SDS011;641;48.492;9.184;2023-03-07T08:35:23;13.77;;;5.47;;
1296;SDS011;641;48.492;9.184;2023-03-07T08:37:54;14.17;;;5.30;;
1296;SDS011;641;48.492;9.184;2023-03-07T08:40:20;14.40;;;5.63;;
1296;SDS011;641;48.492;9.184;2023-03-07T08:42:48;13.77;;;5.73;;
1296;SDS011;641;48.492;9.184;2023-03-07T08:45:13;11.60;;;5.30;;
1296;SDS011;641;48.492;9.184;2023-03-07T08:47:39;14.80;;;6.13;;
1296;SDS011;641;48.492;9.184;2023-03-07T08:50:05;13.40;;;5.67;;
1296;SDS011;641;48.492;9.184;2023-03-07T08:52:30;16.13;;;5.27;;
1296;SDS011;641;48.492;9.184;2023-03-07T08:54:56;12.57;;;5.57;;
1296;SDS011;641;48.492;9.184;2023-03-07T08:57:22;13.83;;;6.10;;
1296;SDS011;641;48.492;9.184;2023-03-07T08:59:48;13.03;;;5.43;;
1296;SDS011;641;48.492;9.184;2023-03-07T09:02:14;14.50;;;6.17;;
1296;SDS011;641;48.492;9.184;2023-03-07T09:04:39;11.90;;;4.57;;
1296;SDS011;641;48.492;9.184;2023-03-07T09:07:05;13.00;;;5.60;;
1296;SDS011;641;48.492;9.184;2023-03-07T09:09:31;13.03;;;5.67;;
1296;SDS011;641;48.492;9.184;2023-03-07T09:11:56;12.67;;;5.93;;
1296;SDS011;641;48.492;9.184;2023-03-07T09:14:22;13.33;;;5.13;;
1296;SDS011;641;48.492;9.184;2023-03-07T09:16:47;15.83;;;6.10;;
1296;SDS011;641;48.492;9.184;2023-03-07T09:19:14;13.47;;;5.70;;
1296;SDS011;641;48.492;9.184;2023-03-07T09:21:39;17.50;;;5.47;;
1296;SDS011;641;48.492;9.184;2023-03-07T09:24:05;14.30;;;6.17;;
1296;SDS011;641;48.492;9.184;2023-03-07T09:26:31;11.83;;;5.10;;
1296;SDS011;641;48.492;9.184;2023-03-07T09:28:58;14.10;;;5.33;;
1296;SDS011;641;48.492;9.184;2023-03-07T09:31:23;11.33;;;5.03;;
1296;SDS011;641;48.492;9.184;2023-03-07T09:33:49;12.60;;;5.00;;
1296;SDS011;641;48.492;9.184;2023-03-07T09:36:15;14.07;;;5.77;;
1296;SDS011;641;48.492;9.184;2023-03-07T09:38:42;12.50;;;5.00;;
1296;SDS011;641;48.492;9.184;2023-03-07T09:46:46;12.37;;;4.53;;
1296;SDS011;641;48.492;9.184;2023-03-07T09:49:44;14.53;;;5.77;;
1296;SDS011;641;48.492;9.184;2023-03-07T09:52:12;16.60;;;6.10;;
1296;SDS011;641;48.492;9.184;2023-03-07T09:54:44;12.80;;;5.80;;
1296;SDS011;641;48.492;9.184;2023-03-07T09:57:27;10.90;;;4.70;;
1296;SDS011;641;48.492;9.184;2023-03-07T09:59:57;12.70;;;5.00;;
1296;SDS011;641;48.492;9.184;2023-03-07T10:02:27;12.70;;;5.23;;
1296;SDS011;641;48.492;9.184;2023-03-07T10:07:32;11.70;;;4.87;;
1296;SDS011;641;48.492;9.184;2023-03-07T10:10:00;10.93;;;4.70;;
1296;SDS011;641;48.492;9.184;2023-03-07T10:12:49;13.17;;;4.83;;
1296;SDS011;641;48.492;9.184;2023-03-07T10:26:29;12.30;;;4.20;;
1296;SDS011;641;48.492;9.184;2023-03-07T10:28:58;12.47;;;4.27;;
1296;SDS011;641;48.492;9.184;2023-03-07T10:31:35;12.20;;;4.90;;
1296;SDS011;641;48.492;9.184;2023-03-07T10:37:20;11.57;;;4.80;;
1296;SDS011;641;48.492;9.184;2023-03-07T10:40:07;12.80;;;3.23;;
1296;SDS011;641;48.492;9.184;2023-03-07T10:42:50;12.17;;;4.90;;
1296;SDS011;641;48.492;9.184;2023-03-07T10:45:17;12.63;;;4.23;;
1296;SDS011;641;48.492;9.184;2023-03-07T10:47:43;13.37;;;5.50;;
1296;SDS011;641;48.492;9.184;2023-03-07T10:50:16;12.13;;;5.03;;
1296;SDS011;641;48.492;9.184;2023-03-07T10:52:48;10.63;;;4.23;;
1296;SDS011;641;48.492;9.184;2023-03-07T10:58:12;11.93;;;5.07;;
1296;SDS011;641;48.492;9.184;2023-03-07T11:00:44;11.70;;;3.93;;
1296;SDS011;641;48.492;9.184;2023-03-07T11:03:21;11.67;;;4.83;;
1296;SDS011;641;48.492;9.184;2023-03-07T11:05:50;15.70;;;6.03;;
1296;SDS011;641;48.492;9.184;2023-03-07T11:08:23;14.77;;;5.87;;
1296;SDS011;641;48.492;9.184;2023-03-07T11:11:00;16.30;;;6.30;;
1296;SDS011;641;48.492;9.184;2023-03-07T11:13:28;12.40;;;4.90;;
1296;SDS011;641;48.492;9.184;2023-03-07T11:18:45;13.23;;;5.33;;
1296;SDS011;641;48.492;9.184;2023-03-07T11:21:31;14.60;;;6.03;;
1296;SDS011;641;48.492;9.184;2023-03-07T11:23:59;12.70;;;5.00;;
1296;SDS011;641;48.492;9.184;2023-03-07T11:26:29;10.83;;;3.63;;
1296;SDS011;641;48.492;9.184;2023-03-07T11:29:10;13.40;;;5.87;;
1296;SDS011;641;48.492;9.184;2023-03-07T11:40:02;12.90;;;5.63;;
1296;SDS011;641;48.492;9.184;2023-03-07T11:45:55;11.47;;;4.90;;
1296;SDS011;641;48.492;9.184;2023-03-07T11:48:41;13.97;;;5.43;;
1296;SDS011;641;48.492;9.184;2023-03-07T11:51:25;12.00;;;5.43;;
1296;SDS011;641;48.492;9.184;2023-03-07T11:54:08;15.77;;;4.47;;
1296;SDS011;641;48.492;9.184;2023-03-07T11:56:59;13.30;;;5.13;;
1296;SDS011;641;48.492;9.184;2023-03-07T12:00:19;13.53;;;3.90;;
1296;SDS011;641;48.492;9.184;2023-03-07T12:05:46;12.00;;;4.70;;
1296;SDS011;641;48.492;9.184;2023-03-07T12:19:52;13.03;;;6.00;;
1296;SDS011;641;48.492;9.184;2023-03-07T12:22:53;13.90;;;4.70;;
1296;SDS011;641;48.492;9.184;2023-03-07T12:25:44;18.70;;;6.50;;
1296;SDS011;641;48.492;9.184;2023-03-07T12:28:17;14.70;;;6.00;;
1296;SDS011;641;48.492;9.184;2023-03-07T12:33:35;9.40;;;3.50;;
1296;SDS011;641;48.492;9.184;2023-03-07T12:36:31;13.90;;;5.37;;
1296;SDS011;641;48.492;9.184;2023-03-07T12:44:43;14.60;;;7.23;;
1296;SDS011;641;48.492;9.184;2023-03-07T12:47:14;15.47;;;5.80;;
1296;SDS011;641;48.492;9.184;2023-03-07T12:52:30;14.00;;;5.50;;
1296;SDS011;641;48.492;9.184;2023-03-07T12:55:22;12.90;;;5.47;;
1296;SDS011;641;48.492;9.184;2023-03-07T13:00:55;12.90;;;5.30;;
1296;SDS011;641;48.492;9.184;2023-03-07T13:06:18;10.70;;;4.57;;
1296;SDS011;641;48.492;9.184;2023-03-07T13:08:46;11.33;;;4.07;;
1296;SDS011;641;48.492;9.184;2023-03-07T13:11:17;13.87;;;5.20;;
1296;SDS011;641;48.492;9.184;2023-03-07T13:13:47;12.20;;;3.97;;
1296;SDS011;641;48.492;9.184;2023-03-07T13:16:31;13.90;;;4.47;;
1296;SDS011;641;48.492;9.184;2023-03-07T13:21:56;11.13;;;3.70;;
1296;SDS011;641;48.492;9.184;2023-03-07T13:24:30;12.30;;;5.50;;
1296;SDS011;641;48.492;9.184;2023-03-07T13:27:12;11.80;;;4.27;;
1296;SDS011;641;48.492;9.184;2023-03-07T13:56:08;12.20;;;4.80;;
1296;SDS011;641;48.492;9.184;2023-03-07T13:58:45;12.33;;;5.00;;
1296;SDS011;641;48.492;9.184;2023-03-07T14:03:51;15.50;;;4.80;;
1296;SDS011;641;48.492;9.184;2023-03-07T14:06:40;12.10;;;5.67;;
1296;SDS011;641;48.492;9.184;2023-03-07T14:09:15;15.57;;;5.47;;
1296;SDS011;641;48.492;9.184;2023-03-07T14:14:31;13.60;;;4.70;;
1296;SDS011;641;48.492;9.184;2023-03-07T14:25:30;12.20;;;5.27;;
1296;SDS011;641;48.492;9.184;2023-03-07T14:28:03;12.57;;;5.00;;
1296;SDS011;641;48.492;9.184;2023-03-07T14:30:31;18.53;;;5.50;;
1296;SDS011;641;48.492;9.184;2023-03-07T14:32:58;12.20;;;4.37;;
1296;SDS011;641;48.492;9.184;2023-03-07T14:35:58;12.30;;;5.30;;
1296;SDS011;641;48.492;9.184;2023-03-07T14:38:21;12.53;;;4.13;;
1296;SDS011;641;48.492;9.184;2023-03-07T14:46:37;14.00;;;4.33;;
1296;SDS011;641;48.492;9.184;2023-03-07T14:52:18;10.73;;;4.30;;
1296;SDS011;641;48.492;9.184;2023-03-07T14:54:45;11.90;;;4.00;;
1296;SDS011;641;48.492;9.184;2023-03-07T14:57:17;10.93;;;3.73;;
1296;SDS011;641;48.492;9.184;2023-03-07T15:02:32;13.23;;;4.23;;
1296;SDS011;641;48.492;9.184;2023-03-07T15:04:57;10.43;;;4.07;;
1296;SDS011;641;48.492;9.184;2023-03-07T15:07:23;14.50;;;4.40;;
1296;SDS011;641;48.492;9.184;2023-03-07T15:09:48;11.53;;;3.73;;
1296;SDS011;641;48.492;9.184;2023-03-07T15:12:15;14.13;;;3.70;;
1296;SDS011;641;48.492;9.184;2023-03-07T15:17:26;10.60;;;4.10;;
1296;SDS011;641;48.492;9.184;2023-03-07T15:19:59;13.27;;;3.87;;
1296;SDS011;641;48.492;9.184;2023-03-07T15:22:32;10.03;;;3.70;;
1296;SDS011;641;48.492;9.184;2023-03-07T15:25:03;10.37;;;3.70;;
1296;SDS011;641;48.492;9.184;2023-03-07T15:27:30;9.43;;;3.23;;
1296;SDS011;641;48.492;9.184;2023-03-07T15:30:00;10.63;;;2.90;;
1296;SDS011;641;48.492;9.184;2023-03-07T15:35:21;10.27;;;3.70;;
1296;SDS011;641;48.492;9.184;2023-03-07T15:37:50;10.40;;;3.97;;
1296;SDS011;641;48.492;9.184;2023-03-07T15:45:28;9.47;;;3.30;;
1296;SDS011;641;48.492;9.184;2023-03-07T15:47:54;10.73;;;3.37;;
1296;SDS011;641;48.492;9.184;2023-03-07T15:50:25;9.27;;;3.53;;
1296;SDS011;641;48.492;9.184;2023-03-07T15:52:51;10.43;;;3.13;;
1296;SDS011;641;48.492;9.184;2023-03-07T15:55:20;10.70;;;3.50;;
1296;SDS011;641;48.492;9.184;2023-03-07T15:57:53;11.27;;;3.50;;
1296;SDS011;641;48.492;9.184;2023-03-07T16:00:35;9.77;;;3.27;;
1296;SDS011;641;48.492;9.184;2023-03-07T16:05:41;13.47;;;3.97;;
1296;SDS011;641;48.492;9.184;2023-03-07T16:08:13;10.60;;;3.47;;
1296;SDS011;641;48.492;9.184;2023-03-07T16:10:48;12.33;;;3.90;;
1296;SDS011;641;48.492;9.184;2023-03-07T16:13:19;10.37;;;3.40;;
1296;SDS011;641;48.492;9.184;2023-03-07T16:16:00;10.07;;;4.17;;
1296;SDS011;641;48.492;9.184;2023-03-07T16:18:30;12.90;;;4.30;;
1296;SDS011;641;48.492;9.184;2023-03-07T16:20:57;11.27;;;3.50;;
1296;SDS011;641;48.492;9.184;2023-03-07T16:23:23;9.93;;;3.23;;
1296;SDS011;641;48.492;9.184;2023-03-07T16:25:52;12.23;;;4.43;;
1296;SDS011;641;48.492;9.184;2023-03-07T16:28:18;11.30;;;4.20;;
1296;SDS011;641;48.492;9.184;2023-03-07T16:30:46;11.67;;;4.20;;
1296;SDS011;641;48.492;9.184;2023-03-07T16:33:12;10.47;;;3.63;;
1296;SDS011;641;48.492;9.184;2023-03-07T16:35:38;9.70;;;3.50;;
1296;SDS011;641;48.492;9.184;2023-03-07T16:38:14;10.00;;;3.70;;
1296;SDS011;641;48.492;9.184;2023-03-07T16:40:44;10.20;;;3.63;;
1296;SDS011;641;48.492;9.184;2023-03-07T16:43:24;9.27;;;3.70;;
1296;SDS011;641;48.492;9.184;2023-03-07T16:46:06;11.73;;;3.73;;
1296;SDS011;641;48.492;9.184;2023-03-07T16:48:41;14.20;;;3.83;;
1296;SDS011;641;48.492;9.184;2023-03-07T16:51:12;11.00;;;3.80;;
1296;SDS011;641;48.492;9.184;2023-03-07T16:53:42;11.60;;;4.00;;
1296;SDS011;641;48.492;9.184;2023-03-07T16:56:11;11.40;;;4.50;;
1296;SDS011;641;48.492;9.184;2023-03-07T16:58:51;11.00;;;4.00;;
1296;SDS011;641;48.492;9.184;2023-03-07T17:01:17;11.83;;;4.40;;
1296;SDS011;641;48.492;9.184;2023-03-07T17:03:43;11.93;;;3.93;;
1296;SDS011;641;48.492;9.184;2023-03-07T17:06:12;9.97;;;3.07;;
1296;SDS011;641;48.492;9.184;2023-03-07T17:08:40;10.47;;;3.27;;
1296;SDS011;641;48.492;9.184;2023-03-07T17:11:16;8.97;;;3.00;;
1296;SDS011;641;48.492;9.184;2023-03-07T17:13:44;12.60;;;3.90;;
1296;SDS011;641;48.492;9.184;2023-03-07T17:16:15;9.80;;;4.47;;
1296;SDS011;641;48.492;9.184;2023-03-07T17:18:41;11.07;;;4.60;;
1296;SDS011;641;48.492;9.184;2023-03-07T17:21:09;10.00;;;3.43;;
1296;SDS011;641;48.492;9.184;2023-03-07T17:23:37;11.83;;;3.80;;
1296;SDS011;641;48.492;9.184;2023-03-07T17:26:03;10.00;;;4.50;;
1296;SDS011;641;48.492;9.184;2023-03-07T17:28:29;10.37;;;4.07;;
1296;SDS011;641;48.492;9.184;2023-03-07T17:30:54;11.33;;;4.10;;
1296;SDS011;641;48.492;9.184;2023-03-07T17:33:20;20.27;;;13.00;;
1296;SDS011;641;48.492;9.184;2023-03-07T17:35:45;15.57;;;6.60;;
1296;SDS011;641;48.492;9.184;2023-03-07T17:38:11;13.57;;;7.30;;
1296;SDS011;641;48.492;9.184;2023-03-07T17:40:36;24.27;;;14.87;;
1296;SDS011;641;48.492;9.184;2023-03-07T17:43:03;15.40;;;7.40;;
1296;SDS011;641;48.492;9.184;2023-03-07T17:45:28;13.17;;;4.53;;
1296;SDS011;641;48.492;9.184;2023-03-07T17:47:55;12.00;;;5.00;;
1296;SDS011;641;48.492;9.184;2023-03-07T17:50:21;12.50;;;5.80;;
1296;SDS011;641;48.492;9.184;2023-03-07T17:52:50;15.47;;;6.20;;
1296;SDS011;641;48.492;9.184;2023-03-07T17:55:17;12.17;;;5.30;;